sensor_id;sensor_type;location;lat;lon;timestamp;temperature;humidity
9941;DHT22;5009;50.656;7.188;2023-02-20T05:00:17;4.40;99.90
9941;DHT22;5009;50.656;7.188;2023-02-20T05:02:43;4.40;99.90
9941;DHT22;5009;50.656;7.188;2023-02-20T05:05:27;4.40;99.90
9941;DHT22;5009;50.656;7.188;2023-02-20T05:07:56;4.40;99.90
9941;DHT22;5009;50.656;7.188;2023-02-20T05:10:22;4.40;99.90
9941;DHT22;5009;50.656;7.188;2023-02-20T05:12:48;4.20;99.90
9941;DHT22;5009;50.656;7.188;2023-02-20T05:15:14;4.20;99.90
9941;DHT22;5009;50.656;7.188;2023-02-20T05:17:39;4.20;99.90
9941;DHT22;5009;50.656;7.188;2023-02-20T05:20:06;4.10;99.90
9941;DHT22;5009;50.656;7.188;2023-02-20T05:22:32;4.00;99.90
9941;DHT22;5009;50.656;7.188;2023-02-20T05:24:57;3.90;99.90
9941;DHT22;5009;50.656;7.188;2023-02-20T05:27:24;3.90;99.90
9941;DHT22;5009;50.656;7.188;2023-02-20T05:29:55;3.90;99.90
9941;DHT22;5009;50.656;7.188;2023-02-20T05:32:22;3.80;99.90
9941;DHT22;5009;50.656;7.188;2023-02-20T05:34:48;3.70;99.90
9941;DHT22;5009;50.656;7.188;2023-02-20T05:37:15;3.80;99.90
9941;DHT22;5009;50.656;7.188;2023-02-20T05:39:42;3.80;99.90
9941;DHT22;5009;50.656;7.188;2023-02-20T05:42:07;3.70;99.90
9941;DHT22;5009;50.656;7.188;2023-02-20T05:44:34;3.70;99.90
9941;DHT22;5009;50.656;7.188;2023-02-20T05:47:00;3.80;99.90
9941;DHT22;5009;50.656;7.188;2023-02-20T05:49:25;3.80;99.90
9941;DHT22;5009;50.656;7.188;2023-02-20T05:51:51;3.80;99.90
9941;DHT22;5009;50.656;7.188;2023-02-20T05:54:18;3.80;99.90
9941;DHT22;5009;50.656;7.188;2023-02-20T05:56:44;3.80;99.90
9941;DHT22;5009;50.656;7.188;2023-02-20T05:59:11;3.80;99.90
9941;DHT22;5009;50.656;7.188;2023-02-20T06:01:36;3.70;99.90
9941;DHT22;5009;50.656;7.188;2023-02-20T06:04:02;3.70;99.90
9941;DHT22;5009;50.656;7.188;2023-02-20T06:06:46;3.70;99.90
9941;DHT22;5009;50.656;7.188;2023-02-20T06:09:13;3.70;99.90
9941;DHT22;5009;50.656;7.188;2023-02-20T06:11:50;3.60;99.90
9941;DHT22;5009;50.656;7.188;2023-02-20T06:14:17;3.60;99.90
9941;DHT22;5009;50.656;7.188;2023-02-20T06:16:44;3.60;99.90
9941;DHT22;5009;50.656;7.188;2023-02-20T06:19:10;3.60;99.90
9941;DHT22;5009;50.656;7.188;2023-02-20T06:21:36;3.60;99.90
9941;DHT22;5009;50.656;7.188;2023-02-20T06:24:05;3.60;99.90
9941;DHT22;5009;50.656;7.188;2023-02-20T06:26:31;3.50;99.90
9941;DHT22;5009;50.656;7.188;2023-02-20T06:28:56;3.50;99.90
9941;DHT22;5009;50.656;7.188;2023-02-20T06:31:24;3.50;99.90
9941;DHT22;5009;50.656;7.188;2023-02-20T06:33:51;3.50;99.90
9941;DHT22;5009;50.656;7.188;2023-02-20T06:36:26;3.60;99.90
9941;DHT22;5009;50.656;7.188;2023-02-20T06:38:52;3.50;99.90
9941;DHT22;5009;50.656;7.188;2023-02-20T06:41:18;3.50;99.90
9941;DHT22;5009;50.656;7.188;2023-02-20T06:43:43;3.60;99.90
9941;DHT22;5009;50.656;7.188;2023-02-20T06:46:09;3.60;99.90
9941;DHT22;5009;50.656;7.188;2023-02-20T06:48:43;3.70;99.90
9941;DHT22;5009;50.656;7.188;2023-02-20T06:51:09;3.70;99.90
9941;DHT22;5009;50.656;7.188;2023-02-20T06:53:34;3.70;99.90
9941;DHT22;5009;50.656;7.188;2023-02-20T06:56:05;3.70;99.90
9941;DHT22;5009;50.656;7.188;2023-02-20T06:58:31;3.70;99.90
9941;DHT22;5009;50.656;7.188;2023-02-20T07:00:56;3.80;99.90
9941;DHT22;5009;50.656;7.188;2023-02-20T07:03:24;3.90;99.90
9941;DHT22;5009;50.656;7.188;2023-02-20T07:05:49;3.90;99.90
9941;DHT22;5009;50.656;7.188;2023-02-20T07:08:15;4.00;99.90
9941;DHT22;5009;50.656;7.188;2023-02-20T07:10:40;4.10;99.90
9941;DHT22;5009;50.656;7.188;2023-02-20T07:13:06;4.30;99.90
9941;DHT22;5009;50.656;7.188;2023-02-20T07:15:31;4.30;99.90
9941;DHT22;5009;50.656;7.188;2023-02-20T07:17:57;4.20;99.90
9941;DHT22;5009;50.656;7.188;2023-02-20T07:20:22;4.30;99.90
9941;DHT22;5009;50.656;7.188;2023-02-20T07:22:49;4.40;99.90
9941;DHT22;5009;50.656;7.188;2023-02-20T07:25:15;4.40;99.90
9941;DHT22;5009;50.656;7.188;2023-02-20T07:27:41;4.60;99.90
9941;DHT22;5009;50.656;7.188;2023-02-20T07:30:07;4.70;99.90
9941;DHT22;5009;50.656;7.188;2023-02-20T07:32:32;4.80;99.90
9941;DHT22;5009;50.656;7.188;2023-02-20T07:34:58;4.90;99.90
9941;DHT22;5009;50.656;7.188;2023-02-20T07:37:24;5.00;99.90
9941;DHT22;5009;50.656;7.188;2023-02-20T07:39:49;5.70;99.90
9941;DHT22;5009;50.656;7.188;2023-02-20T07:42:16;6.40;99.90
9941;DHT22;5009;50.656;7.188;2023-02-20T07:44:43;6.80;99.90
9941;DHT22;5009;50.656;7.188;2023-02-20T07:47:11;7.10;99.90
9941;DHT22;5009;50.656;7.188;2023-02-20T07:49:37;6.80;99.90
9941;DHT22;5009;50.656;7.188;2023-02-20T07:52:02;6.60;99.90
9941;DHT22;5009;50.656;7.188;2023-02-20T07:54:28;6.60;99.90
9941;DHT22;5009;50.656;7.188;2023-02-20T07:56:54;6.50;99.90
9941;DHT22;5009;50.656;7.188;2023-02-20T07:59:20;6.50;99.90
9941;DHT22;5009;50.656;7.188;2023-02-20T08:01:46;6.80;99.90
9941;DHT22;5009;50.656;7.188;2023-02-20T08:04:12;7.50;99.90
9941;DHT22;5009;50.656;7.188;2023-02-20T08:06:37;7.80;99.90
9941;DHT22;5009;50.656;7.188;2023-02-20T08:09:03;8.70;99.90
9941;DHT22;5009;50.656;7.188;2023-02-20T08:11:32;9.80;99.90
9941;DHT22;5009;50.656;7.188;2023-02-20T08:13:58;10.50;99.90
9941;DHT22;5009;50.656;7.188;2023-02-20T08:16:23;10.90;99.90
9941;DHT22;5009;50.656;7.188;2023-02-20T08:18:51;10.70;99.90
9941;DHT22;5009;50.656;7.188;2023-02-20T08:21:17;10.70;99.90
9941;DHT22;5009;50.656;7.188;2023-02-20T08:23:43;10.70;99.90
9941;DHT22;5009;50.656;7.188;2023-02-20T08:26:09;10.60;99.90
9941;DHT22;5009;50.656;7.188;2023-02-20T08:28:34;10.30;99.90
9941;DHT22;5009;50.656;7.188;2023-02-20T08:31:00;10.00;99.90
9941;DHT22;5009;50.656;7.188;2023-02-20T08:33:25;9.90;99.90
9941;DHT22;5009;50.656;7.188;2023-02-20T08:35:51;9.80;99.90
9941;DHT22;5009;50.656;7.188;2023-02-20T08:40:55;9.80;99.90
9941;DHT22;5009;50.656;7.188;2023-02-20T08:43:21;9.70;99.90
9941;DHT22;5009;50.656;7.188;2023-02-20T08:45:46;9.80;99.90
9941;DHT22;5009;50.656;7.188;2023-02-20T08:48:12;9.90;99.90
9941;DHT22;5009;50.656;7.188;2023-02-20T08:50:38;10.00;99.90
9941;DHT22;5009;50.656;7.188;2023-02-20T08:53:03;10.10;99.90
9941;DHT22;5009;50.656;7.188;2023-02-20T08:55:29;9.90;99.90
9941;DHT22;5009;50.656;7.188;2023-02-20T08:57:54;9.80;99.90
9941;DHT22;5009;50.656;7.188;2023-02-20T09:00:20;9.60;99.90
9941;DHT22;5009;50.656;7.188;2023-02-20T09:02:46;9.60;99.90
9941;DHT22;5009;50.656;7.188;2023-02-20T09:05:13;9.50;99.90
9941;DHT22;5009;50.656;7.188;2023-02-20T09:07:39;9.50;99.90
9941;DHT22;5009;50.656;7.188;2023-02-20T09:10:04;9.60;99.90
9941;DHT22;5009;50.656;7.188;2023-02-20T09:12:31;9.70;99.90
9941;DHT22;5009;50.656;7.188;2023-02-20T09:14:57;9.80;99.90
9941;DHT22;5009;50.656;7.188;2023-02-20T09:17:28;10.00;99.90
9941;DHT22;5009;50.656;7.188;2023-02-20T09:19:54;10.10;99.90
9941;DHT22;5009;50.656;7.188;2023-02-20T09:22:23;10.30;99.90
9941;DHT22;5009;50.656;7.188;2023-02-20T09:24:50;10.40;99.90
9941;DHT22;5009;50.656;7.188;2023-02-20T09:27:16;10.30;99.90
9941;DHT22;5009;50.656;7.188;2023-02-20T09:29:41;10.40;99.90
9941;DHT22;5009;50.656;7.188;2023-02-20T09:32:08;10.50;99.90
9941;DHT22;5009;50.656;7.188;2023-02-20T09:34:34;10.50;99.90
9941;DHT22;5009;50.656;7.188;2023-02-20T09:37:00;10.50;99.90
9941;DHT22;5009;50.656;7.188;2023-02-20T09:39:25;10.60;99.90
9941;DHT22;5009;50.656;7.188;2023-02-20T09:44:45;10.80;99.90
9941;DHT22;5009;50.656;7.188;2023-02-20T09:47:44;10.90;99.90
9941;DHT22;5009;50.656;7.188;2023-02-20T09:50:21;10.90;99.90
9941;DHT22;5009;50.656;7.188;2023-02-20T09:52:58;11.00;99.90
9941;DHT22;5009;50.656;7.188;2023-02-20T09:55:29;11.00;98.40
9941;DHT22;5009;50.656;7.188;2023-02-20T09:57:57;10.90;98.60
9941;DHT22;5009;50.656;7.188;2023-02-20T10:00:30;11.00;99.20
9941;DHT22;5009;50.656;7.188;2023-02-20T10:03:17;11.00;98.90
9941;DHT22;5009;50.656;7.188;2023-02-20T10:05:44;11.00;97.80
9941;DHT22;5009;50.656;7.188;2023-02-20T10:08:12;11.00;96.40
9941;DHT22;5009;50.656;7.188;2023-02-20T10:10:39;10.90;96.20
9941;DHT22;5009;50.656;7.188;2023-02-20T10:13:46;10.90;95.90
9941;DHT22;5009;50.656;7.188;2023-02-20T10:19:17;11.00;96.10
9941;DHT22;5009;50.656;7.188;2023-02-20T10:22:10;11.00;96.30
9941;DHT22;5009;50.656;7.188;2023-02-20T10:30:03;10.90;96.90
9941;DHT22;5009;50.656;7.188;2023-02-20T10:32:42;10.90;97.20
9941;DHT22;5009;50.656;7.188;2023-02-20T10:35:17;11.00;96.90
9941;DHT22;5009;50.656;7.188;2023-02-20T10:37:53;11.00;97.00
9941;DHT22;5009;50.656;7.188;2023-02-20T10:40:25;10.90;96.40
9941;DHT22;5009;50.656;7.188;2023-02-20T10:43:04;10.80;96.80
9941;DHT22;5009;50.656;7.188;2023-02-20T10:45:53;10.70;95.90
9941;DHT22;5009;50.656;7.188;2023-02-20T10:48:24;10.60;97.20
9941;DHT22;5009;50.656;7.188;2023-02-20T10:51:09;10.60;97.30
9941;DHT22;5009;50.656;7.188;2023-02-20T10:53:54;10.70;97.20
9941;DHT22;5009;50.656;7.188;2023-02-20T10:59:30;10.70;97.20
9941;DHT22;5009;50.656;7.188;2023-02-20T11:01:59;10.70;97.60
9941;DHT22;5009;50.656;7.188;2023-02-20T11:04:35;10.70;97.20
9941;DHT22;5009;50.656;7.188;2023-02-20T11:07:06;10.60;96.90
9941;DHT22;5009;50.656;7.188;2023-02-20T11:09:33;10.70;97.30
9941;DHT22;5009;50.656;7.188;2023-02-20T11:11:59;10.80;96.80
9941;DHT22;5009;50.656;7.188;2023-02-20T11:14:33;10.80;96.30
9941;DHT22;5009;50.656;7.188;2023-02-20T11:17:15;10.90;96.90
9941;DHT22;5009;50.656;7.188;2023-02-20T11:22:13;10.80;96.40
9941;DHT22;5009;50.656;7.188;2023-02-20T11:24:41;10.80;95.90
9941;DHT22;5009;50.656;7.188;2023-02-20T11:27:20;10.80;95.60
9941;DHT22;5009;50.656;7.188;2023-02-20T11:29:55;10.80;95.50
9941;DHT22;5009;50.656;7.188;2023-02-20T11:32:30;10.80;96.00
9941;DHT22;5009;50.656;7.188;2023-02-20T11:37:42;10.80;95.90
9941;DHT22;5009;50.656;7.188;2023-02-20T11:40:27;10.70;95.60
9941;DHT22;5009;50.656;7.188;2023-02-20T11:42:53;10.70;96.20
9941;DHT22;5009;50.656;7.188;2023-02-20T11:45:23;10.80;96.70
9941;DHT22;5009;50.656;7.188;2023-02-20T11:48:12;10.80;96.40
9941;DHT22;5009;50.656;7.188;2023-02-20T11:50:49;10.90;96.10
9941;DHT22;5009;50.656;7.188;2023-02-20T11:53:23;11.00;96.90
9941;DHT22;5009;50.656;7.188;2023-02-20T11:58:32;11.10;96.80
9941;DHT22;5009;50.656;7.188;2023-02-20T12:00:57;11.20;96.90
9941;DHT22;5009;50.656;7.188;2023-02-20T12:05:50;11.30;96.00
9941;DHT22;5009;50.656;7.188;2023-02-20T12:11:11;11.20;96.20
9941;DHT22;5009;50.656;7.188;2023-02-20T12:13:42;11.30;95.90
9941;DHT22;5009;50.656;7.188;2023-02-20T12:41:52;11.50;95.20
9941;DHT22;5009;50.656;7.188;2023-02-20T13:01:04;11.60;96.00
9941;DHT22;5009;50.656;7.188;2023-02-20T13:03:51;11.70;95.80
9941;DHT22;5009;50.656;7.188;2023-02-20T13:06:31;11.70;95.80
9941;DHT22;5009;50.656;7.188;2023-02-20T13:09:23;11.70;95.90
9941;DHT22;5009;50.656;7.188;2023-02-20T13:11:53;11.80;96.00
9941;DHT22;5009;50.656;7.188;2023-02-20T13:14:37;11.80;96.20
9941;DHT22;5009;50.656;7.188;2023-02-20T13:17:34;11.80;96.30
9941;DHT22;5009;50.656;7.188;2023-02-20T13:20:30;11.80;96.30
9941;DHT22;5009;50.656;7.188;2023-02-20T13:25:46;11.90;96.80
9941;DHT22;5009;50.656;7.188;2023-02-20T13:33:40;12.00;97.30
9941;DHT22;5009;50.656;7.188;2023-02-20T13:36:39;12.10;97.80
9941;DHT22;5009;50.656;7.188;2023-02-20T13:47:27;12.20;99.70
9941;DHT22;5009;50.656;7.188;2023-02-20T13:52:38;12.30;99.90
9941;DHT22;5009;50.656;7.188;2023-02-20T14:02:56;12.30;99.90
9941;DHT22;5009;50.656;7.188;2023-02-20T14:05:25;12.30;99.90
9941;DHT22;5009;50.656;7.188;2023-02-20T14:07:51;12.30;99.90
9941;DHT22;5009;50.656;7.188;2023-02-20T14:10:28;12.20;99.90
9941;DHT22;5009;50.656;7.188;2023-02-20T14:13:00;12.20;99.90
9941;DHT22;5009;50.656;7.188;2023-02-20T14:15:28;12.20;99.90
9941;DHT22;5009;50.656;7.188;2023-02-20T14:17:56;12.20;99.90
9941;DHT22;5009;50.656;7.188;2023-02-20T14:20:26;12.20;99.90
9941;DHT22;5009;50.656;7.188;2023-02-20T14:23:26;12.20;99.90
9941;DHT22;5009;50.656;7.188;2023-02-20T14:28:22;12.20;99.90
9941;DHT22;5009;50.656;7.188;2023-02-20T14:33:28;12.20;99.90
9941;DHT22;5009;50.656;7.188;2023-02-20T14:36:52;12.20;99.90
9941;DHT22;5009;50.656;7.188;2023-02-20T14:38:59;12.20;99.90
9941;DHT22;5009;50.656;7.188;2023-02-20T14:41:29;12.10;99.90
9941;DHT22;5009;50.656;7.188;2023-02-20T14:44:03;12.20;99.90
9941;DHT22;5009;50.656;7.188;2023-02-20T14:46:32;12.20;99.90
9941;DHT22;5009;50.656;7.188;2023-02-20T14:49:15;12.20;99.90
9941;DHT22;5009;50.656;7.188;2023-02-20T14:51:41;12.20;99.90
9941;DHT22;5009;50.656;7.188;2023-02-20T14:56:39;12.30;99.90
9941;DHT22;5009;50.656;7.188;2023-02-20T14:59:27;12.30;99.90
9941;DHT22;5009;50.656;7.188;2023-02-20T15:01:58;12.40;99.90
9941;DHT22;5009;50.656;7.188;2023-02-20T15:04:25;12.40;99.90
9941;DHT22;5009;50.656;7.188;2023-02-20T15:06:52;12.50;99.90
9941;DHT22;5009;50.656;7.188;2023-02-20T15:09:20;12.50;99.90
9941;DHT22;5009;50.656;7.188;2023-02-20T15:11:51;12.40;99.90
9941;DHT22;5009;50.656;7.188;2023-02-20T15:14:23;12.40;99.90
9941;DHT22;5009;50.656;7.188;2023-02-20T15:17:19;12.40;99.90
9941;DHT22;5009;50.656;7.188;2023-02-20T15:19:46;12.40;99.90
9941;DHT22;5009;50.656;7.188;2023-02-20T15:24:53;12.50;99.90
9941;DHT22;5009;50.656;7.188;2023-02-20T15:27:20;12.60;99.90
9941;DHT22;5009;50.656;7.188;2023-02-20T15:30:12;12.60;99.90
9941;DHT22;5009;50.656;7.188;2023-02-20T15:32:41;12.60;99.90
9941;DHT22;5009;50.656;7.188;2023-02-20T15:35:20;12.50;99.90
9941;DHT22;5009;50.656;7.188;2023-02-20T15:37:46;12.50;99.90
9941;DHT22;5009;50.656;7.188;2023-02-20T15:40:26;12.60;99.90
9941;DHT22;5009;50.656;7.188;2023-02-20T15:42:53;12.50;99.90
9941;DHT22;5009;50.656;7.188;2023-02-20T15:45:22;12.50;99.90
9941;DHT22;5009;50.656;7.188;2023-02-20T15:47:47;12.40;99.90
9941;DHT22;5009;50.656;7.188;2023-02-20T15:50:13;12.40;99.90
9941;DHT22;5009;50.656;7.188;2023-02-20T15:52:39;12.40;99.90
9941;DHT22;5009;50.656;7.188;2023-02-20T15:55:04;12.40;99.90
9941;DHT22;5009;50.656;7.188;2023-02-20T15:57:30;12.40;99.90
9941;DHT22;5009;50.656;7.188;2023-02-20T15:59:56;12.40;99.90
9941;DHT22;5009;50.656;7.188;2023-02-20T16:02:22;12.30;99.90
9941;DHT22;5009;50.656;7.188;2023-02-20T16:04:50;12.30;99.90
9941;DHT22;5009;50.656;7.188;2023-02-20T16:07:17;12.20;99.90
9941;DHT22;5009;50.656;7.188;2023-02-20T16:09:43;12.20;99.90
9941;DHT22;5009;50.656;7.188;2023-02-20T16:12:19;12.20;99.90
9941;DHT22;5009;50.656;7.188;2023-02-20T16:14:45;12.10;99.90
9941;DHT22;5009;50.656;7.188;2023-02-20T16:17:17;12.10;99.90
9941;DHT22;5009;50.656;7.188;2023-02-20T16:19:44;12.00;99.90
9941;DHT22;5009;50.656;7.188;2023-02-20T16:22:10;11.90;99.90
9941;DHT22;5009;50.656;7.188;2023-02-20T16:24:36;11.80;99.90
9941;DHT22;5009;50.656;7.188;2023-02-20T16:27:03;11.80;99.90
9941;DHT22;5009;50.656;7.188;2023-02-20T16:29:33;11.60;99.90
9941;DHT22;5009;50.656;7.188;2023-02-20T16:34:28;11.50;99.90
9941;DHT22;5009;50.656;7.188;2023-02-20T16:36:56;11.40;99.90
9941;DHT22;5009;50.656;7.188;2023-02-20T16:39:21;11.30;99.90
9941;DHT22;5009;50.656;7.188;2023-02-20T16:41:47;11.20;99.90
9941;DHT22;5009;50.656;7.188;2023-02-20T16:44:35;11.10;99.90
9941;DHT22;5009;50.656;7.188;2023-02-20T16:47:02;10.90;99.90
9941;DHT22;5009;50.656;7.188;2023-02-20T16:49:28;10.80;99.90
9941;DHT22;5009;50.656;7.188;2023-02-20T16:51:53;10.80;99.90
9941;DHT22;5009;50.656;7.188;2023-02-20T16:54:28;10.70;99.90
9941;DHT22;5009;50.656;7.188;2023-02-20T16:56:54;10.60;99.90
9941;DHT22;5009;50.656;7.188;2023-02-20T16:59:20;10.50;99.90
9941;DHT22;5009;50.656;7.188;2023-02-20T17:01:47;10.40;99.90
9941;DHT22;5009;50.656;7.188;2023-02-20T17:04:13;10.30;99.90
9941;DHT22;5009;50.656;7.188;2023-02-20T17:06:40;10.30;99.90
9941;DHT22;5009;50.656;7.188;2023-02-20T17:09:05;10.30;99.90
9941;DHT22;5009;50.656;7.188;2023-02-20T17:11:31;10.20;99.90
9941;DHT22;5009;50.656;7.188;2023-02-20T17:13:57;10.10;99.90
9941;DHT22;5009;50.656;7.188;2023-02-20T17:16:22;10.10;99.90
9941;DHT22;5009;50.656;7.188;2023-02-20T17:18:48;10.00;99.90
9941;DHT22;5009;50.656;7.188;2023-02-20T17:21:13;10.00;99.90
9941;DHT22;5009;50.656;7.188;2023-02-20T17:23:39;9.90;99.90
9941;DHT22;5009;50.656;7.188;2023-02-20T17:26:04;9.80;99.90
9941;DHT22;5009;50.656;7.188;2023-02-20T17:28:32;9.80;99.90
9941;DHT22;5009;50.656;7.188;2023-02-20T17:30:57;9.70;99.90
9941;DHT22;5009;50.656;7.188;2023-02-20T17:33:23;9.70;99.90
9941;DHT22;5009;50.656;7.188;2023-02-20T17:35:49;9.70;99.90
9941;DHT22;5009;50.656;7.188;2023-02-20T17:38:15;9.70;99.90
9941;DHT22;5009;50.656;7.188;2023-02-20T17:40:40;9.70;99.90
9941;DHT22;5009;50.656;7.188;2023-02-20T17:43:06;9.70;99.90
9941;DHT22;5009;50.656;7.188;2023-02-20T17:45:32;9.70;99.90
9941;DHT22;5009;50.656;7.188;2023-02-20T17:47:57;9.80;99.90
9941;DHT22;5009;50.656;7.188;2023-02-20T17:50:23;9.80;99.90
9941;DHT22;5009;50.656;7.188;2023-02-20T17:52:51;9.80;99.90
9941;DHT22;5009;50.656;7.188;2023-02-20T17:55:21;9.90;99.90
9941;DHT22;5009;50.656;7.188;2023-02-20T17:57:47;9.80;99.90
9941;DHT22;5009;50.656;7.188;2023-02-20T18:00:13;9.70;99.90
9941;DHT22;5009;50.656;7.188;2023-02-20T18:02:39;9.80;99.90
9941;DHT22;5009;50.656;7.188;2023-02-20T18:05:05;9.90;99.90
9941;DHT22;5009;50.656;7.188;2023-02-20T18:07:31;9.80;99.90
9941;DHT22;5009;50.656;7.188;2023-02-20T18:09:56;9.90;99.90
9941;DHT22;5009;50.656;7.188;2023-02-20T18:12:23;9.90;99.90
9941;DHT22;5009;50.656;7.188;2023-02-20T18:14:48;9.90;99.90
9941;DHT22;5009;50.656;7.188;2023-02-20T18:17:15;9.90;99.90
9941;DHT22;5009;50.656;7.188;2023-02-20T18:19:41;9.80;99.90
9941;DHT22;5009;50.656;7.188;2023-02-20T18:22:07;9.80;99.90
9941;DHT22;5009;50.656;7.188;2023-02-20T18:24:32;9.80;99.90
9941;DHT22;5009;50.656;7.188;2023-02-20T18:26:59;9.90;99.90
9941;DHT22;5009;50.656;7.188;2023-02-20T18:29:25;9.90;99.90
9941;DHT22;5009;50.656;7.188;2023-02-20T18:31:52;9.90;99.90
9941;DHT22;5009;50.656;7.188;2023-02-20T18:34:19;9.90;99.90
9941;DHT22;5009;50.656;7.188;2023-02-20T18:36:45;9.90;99.90
9941;DHT22;5009;50.656;7.188;2023-02-20T18:39:11;9.90;99.90
9941;DHT22;5009;50.656;7.188;2023-02-20T18:41:39;9.90;99.90
9941;DHT22;5009;50.656;7.188;2023-02-20T18:44:04;9.80;99.90
9941;DHT22;5009;50.656;7.188;2023-02-20T18:46:32;9.80;99.90
9941;DHT22;5009;50.656;7.188;2023-02-20T18:48:59;9.80;99.90
9941;DHT22;5009;50.656;7.188;2023-02-20T18:51:31;9.80;99.90
9941;DHT22;5009;50.656;7.188;2023-02-20T18:53:57;9.80;99.90
9941;DHT22;5009;50.656;7.188;2023-02-20T18:56:24;9.70;99.90
9941;DHT22;5009;50.656;7.188;2023-02-20T18:58:50;9.70;99.90
9941;DHT22;5009;50.656;7.188;2023-02-20T19:01:16;9.70;99.90
9941;DHT22;5009;50.656;7.188;2023-02-20T19:03:48;9.70;99.90
9941;DHT22;5009;50.656;7.188;2023-02-20T19:06:34;9.70;99.90
9941;DHT22;5009;50.656;7.188;2023-02-20T19:09:01;9.70;99.90
9941;DHT22;5009;50.656;7.188;2023-02-20T19:11:28;9.70;99.90
9941;DHT22;5009;50.656;7.188;2023-02-20T19:13:54;9.70;99.90
9941;DHT22;5009;50.656;7.188;2023-02-20T19:16:20;9.70;99.90
9941;DHT22;5009;50.656;7.188;2023-02-20T19:18:45;9.80;99.90
9941;DHT22;5009;50.656;7.188;2023-02-20T19:21:11;9.80;99.90
9941;DHT22;5009;50.656;7.188;2023-02-20T19:23:38;9.70;99.90
9941;DHT22;5009;50.656;7.188;2023-02-20T19:26:05;9.60;99.90
9941;DHT22;5009;50.656;7.188;2023-02-20T19:28:31;9.70;99.90
9941;DHT22;5009;50.656;7.188;2023-02-20T19:31:00;9.70;99.90
9941;DHT22;5009;50.656;7.188;2023-02-20T19:33:26;9.80;99.90
9941;DHT22;5009;50.656;7.188;2023-02-20T19:35:53;9.70;99.90
9941;DHT22;5009;50.656;7.188;2023-02-20T19:38:18;9.70;99.90
9941;DHT22;5009;50.656;7.188;2023-02-20T19:40:45;9.60;99.90
9941;DHT22;5009;50.656;7.188;2023-02-20T19:43:10;9.60;99.90
9941;DHT22;5009;50.656;7.188;2023-02-20T19:45:36;9.60;99.90
9941;DHT22;5009;50.656;7.188;2023-02-20T19:48:02;9.60;99.90
9941;DHT22;5009;50.656;7.188;2023-02-20T19:50:28;9.60;99.90
9941;DHT22;5009;50.656;7.188;2023-02-20T19:52:56;9.50;99.90
9941;DHT22;5009;50.656;7.188;2023-02-20T19:55:22;9.60;99.90
9941;DHT22;5009;50.656;7.188;2023-02-20T19:57:47;9.60;99.90
9941;DHT22;5009;50.656;7.188;2023-02-20T20:00:15;9.60;99.90
9941;DHT22;5009;50.656;7.188;2023-02-20T20:02:44;9.60;99.90
9941;DHT22;5009;50.656;7.188;2023-02-20T20:05:10;9.50;99.90
9941;DHT22;5009;50.656;7.188;2023-02-20T20:07:36;9.50;99.90
9941;DHT22;5009;50.656;7.188;2023-02-20T20:10:02;9.50;99.90
9941;DHT22;5009;50.656;7.188;2023-02-20T20:12:28;9.40;99.90
9941;DHT22;5009;50.656;7.188;2023-02-20T20:15:23;9.40;99.90
9941;DHT22;5009;50.656;7.188;2023-02-20T20:17:51;9.40;99.90
9941;DHT22;5009;50.656;7.188;2023-02-20T20:20:19;9.30;99.90
9941;DHT22;5009;50.656;7.188;2023-02-20T20:22:46;9.30;99.90
9941;DHT22;5009;50.656;7.188;2023-02-20T20:25:12;9.30;99.90
9941;DHT22;5009;50.656;7.188;2023-02-20T20:27:38;9.30;99.90
9941;DHT22;5009;50.656;7.188;2023-02-20T20:30:05;9.30;99.90
9941;DHT22;5009;50.656;7.188;2023-02-20T20:32:32;9.40;99.90
9941;DHT22;5009;50.656;7.188;2023-02-20T20:34:58;9.40;99.90
9941;DHT22;5009;50.656;7.188;2023-02-20T20:37:24;9.40;99.90
9941;DHT22;5009;50.656;7.188;2023-02-20T20:39:51;9.40;99.90
9941;DHT22;5009;50.656;7.188;2023-02-20T20:42:18;9.40;99.90
9941;DHT22;5009;50.656;7.188;2023-02-20T20:44:49;9.40;99.90
9941;DHT22;5009;50.656;7.188;2023-02-20T20:47:15;9.40;99.90
9941;DHT22;5009;50.656;7.188;2023-02-20T20:49:41;9.50;99.90
9941;DHT22;5009;50.656;7.188;2023-02-20T20:52:06;9.50;99.90
9941;DHT22;5009;50.656;7.188;2023-02-20T20:54:32;9.60;99.90
9941;DHT22;5009;50.656;7.188;2023-02-20T20:56:58;9.60;99.90
9941;DHT22;5009;50.656;7.188;2023-02-20T20:59:23;9.60;99.90
9941;DHT22;5009;50.656;7.188;2023-02-20T21:01:49;9.60;99.90
9941;DHT22;5009;50.656;7.188;2023-02-20T21:04:14;9.60;99.90
9941;DHT22;5009;50.656;7.188;2023-02-20T21:06:40;9.60;99.90
9941;DHT22;5009;50.656;7.188;2023-02-20T21:09:05;9.60;99.90
9941;DHT22;5009;50.656;7.188;2023-02-20T21:11:31;9.60;99.90
9941;DHT22;5009;50.656;7.188;2023-02-20T21:13:57;9.60;99.90
9941;DHT22;5009;50.656;7.188;2023-02-20T21:16:22;9.60;99.90
9941;DHT22;5009;50.656;7.188;2023-02-20T21:18:48;9.60;99.90
9941;DHT22;5009;50.656;7.188;2023-02-20T21:21:14;9.60;99.90
9941;DHT22;5009;50.656;7.188;2023-02-20T21:23:40;9.60;99.90
9941;DHT22;5009;50.656;7.188;2023-02-20T21:26:10;9.50;99.90
9941;DHT22;5009;50.656;7.188;2023-02-20T21:28:36;9.40;99.90
9941;DHT22;5009;50.656;7.188;2023-02-20T21:31:02;9.40;99.90
9941;DHT22;5009;50.656;7.188;2023-02-20T21:33:27;9.40;99.90
9941;DHT22;5009;50.656;7.188;2023-02-20T21:35:53;9.50;99.90
9941;DHT22;5009;50.656;7.188;2023-02-20T21:38:18;9.50;99.90
9941;DHT22;5009;50.656;7.188;2023-02-20T21:40:44;9.50;99.90
9941;DHT22;5009;50.656;7.188;2023-02-20T21:43:10;9.50;99.90
9941;DHT22;5009;50.656;7.188;2023-02-20T21:45:54;9.50;99.90
9941;DHT22;5009;50.656;7.188;2023-02-20T21:48:20;9.60;99.90
9941;DHT22;5009;50.656;7.188;2023-02-20T21:50:45;9.60;99.90
9941;DHT22;5009;50.656;7.188;2023-02-20T21:53:11;9.60;99.90
9941;DHT22;5009;50.656;7.188;2023-02-20T21:55:41;9.50;99.90
9941;DHT22;5009;50.656;7.188;2023-02-20T21:58:07;9.50;99.90
